createdAt,value
2022-11-14T00:02:29.081Z,12.20
2022-11-14T00:05:16.810Z,13.70
2022-11-14T01:48:16.661Z,14.20
2022-11-14T01:51:07.510Z,14.47
2022-11-14T01:53:56.222Z,14.90
2022-11-14T01:56:45.642Z,14.60
2022-11-14T01:59:36.292Z,14.83
2022-11-14T02:02:26.457Z,14.80
2022-11-14T02:05:16.204Z,13.70
2022-11-14T02:08:03.970Z,13.50
2022-11-14T02:10:52.053Z,13.90
2022-11-14T02:13:39.711Z,13.80
2022-11-14T02:16:27.392Z,14.10
2022-11-14T02:19:17.900Z,13.10
2022-11-14T02:22:07.163Z,14.10
2022-11-14T02:24:54.706Z,16.77
2022-11-14T02:27:43.748Z,18.40
2022-11-14T02:30:31.557Z,15.77
2022-11-14T02:33:19.695Z,15.67
2022-11-14T02:36:07.557Z,17.00
2022-11-14T02:38:56.917Z,16.87
2022-11-14T02:41:44.469Z,16.57
2022-11-14T02:44:32.522Z,26.70
2022-11-14T02:47:20.574Z,16.50
2022-11-14T02:50:09.062Z,16.23
2022-11-14T02:52:56.991Z,16.43
2022-11-14T02:55:46.020Z,20.27
2022-11-14T02:58:34.159Z,19.50
2022-11-14T03:01:22.309Z,17.83
2022-11-14T03:04:10.485Z,17.70
2022-11-14T03:06:57.984Z,16.70
2022-11-14T03:09:45.768Z,17.53
2022-11-14T03:12:34.881Z,16.50
2022-11-14T03:15:22.612Z,15.93
2022-11-14T03:18:10.131Z,15.80
2022-11-14T03:20:57.821Z,13.33
2022-11-14T03:23:46.100Z,13.73
2022-11-14T03:26:33.699Z,13.13
2022-11-14T03:29:22.939Z,13.10
2022-11-14T03:32:10.840Z,13.47
2022-11-14T03:34:59.071Z,13.13
2022-11-14T03:37:46.845Z,12.30
2022-11-14T03:40:34.580Z,13.80
2022-11-14T03:43:22.847Z,22.07
2022-11-14T03:46:12.440Z,12.47
2022-11-14T03:49:00.137Z,11.40
2022-11-14T03:51:47.855Z,13.33
2022-11-14T03:54:35.719Z,13.67
2022-11-14T03:57:23.348Z,12.67
2022-11-14T04:00:11.741Z,12.73
2022-11-14T04:03:00.847Z,13.33
2022-11-14T04:05:48.695Z,12.90
2022-11-14T04:08:36.476Z,12.67
2022-11-14T04:11:24.297Z,15.30
2022-11-14T04:14:12.006Z,13.30
2022-11-14T04:17:00.273Z,13.50
2022-11-14T04:19:49.300Z,13.23
2022-11-14T04:22:37.243Z,13.80
2022-11-14T04:25:24.850Z,12.90
2022-11-14T04:28:12.801Z,14.13
2022-11-14T04:31:01.320Z,13.37
2022-11-14T04:33:48.865Z,12.90
2022-11-14T04:36:37.817Z,13.37
2022-11-14T04:39:25.556Z,13.10
2022-11-14T04:42:13.439Z,11.33
2022-11-14T04:45:01.169Z,12.43
2022-11-14T04:47:48.773Z,11.33
2022-11-14T04:50:36.544Z,11.60
2022-11-14T04:53:25.860Z,11.20
2022-11-14T04:56:13.736Z,12.20
2022-11-14T04:59:01.262Z,11.53
2022-11-14T05:01:48.943Z,10.67
2022-11-14T05:04:36.624Z,11.50
2022-11-14T05:07:24.376Z,10.70
2022-11-14T05:10:14.196Z,11.97
2022-11-14T05:13:02.036Z,10.20
2022-11-14T05:15:49.736Z,10.47
2022-11-14T05:18:37.283Z,9.50
2022-11-14T05:21:25.043Z,10.90
2022-11-14T05:24:12.844Z,10.00
2022-11-14T05:27:02.282Z,10.80
2022-11-14T05:29:49.850Z,10.40
2022-11-14T05:32:37.557Z,9.30
2022-11-14T05:35:25.015Z,9.40
2022-11-14T05:38:12.884Z,9.37
2022-11-14T05:41:00.524Z,7.47
2022-11-14T05:43:49.472Z,8.40
2022-11-14T05:46:37.512Z,7.87
2022-11-14T05:49:25.290Z,10.13
2022-11-14T05:52:12.751Z,14.57
2022-11-14T05:55:00.878Z,15.20
2022-11-14T05:57:48.982Z,17.13
2022-11-14T06:00:46.499Z,17.80
2022-11-14T06:03:37.304Z,18.57
2022-11-14T06:06:25.042Z,17.70
2022-11-14T06:09:12.991Z,17.70
2022-11-14T06:12:00.781Z,18.47
2022-11-14T06:14:48.510Z,20.00
2022-11-14T06:17:37.560Z,19.03
2022-11-14T06:20:25.086Z,17.50
2022-11-14T06:23:12.972Z,18.00
2022-11-14T06:26:01.746Z,18.67
2022-11-14T06:28:49.771Z,18.80
2022-11-14T06:31:37.440Z,19.83
2022-11-14T06:34:26.619Z,19.37
2022-11-14T06:37:14.258Z,20.40
2022-11-14T06:40:02.247Z,19.37
2022-11-14T06:42:50.304Z,14.67
2022-11-14T06:45:38.204Z,15.60
2022-11-14T06:48:26.451Z,15.40
2022-11-14T06:51:15.995Z,12.93
2022-11-14T06:54:03.552Z,14.07
2022-11-14T06:56:51.287Z,13.20
2022-11-14T06:59:39.180Z,11.80
2022-11-14T07:02:26.864Z,13.27
2022-11-14T07:05:14.689Z,12.47
2022-11-14T07:08:04.015Z,10.90
2022-11-14T07:10:51.788Z,9.60
2022-11-14T07:13:40.201Z,8.80
2022-11-14T07:16:30.384Z,8.30
2022-11-14T07:19:18.228Z,6.80
2022-11-14T07:22:05.973Z,6.50
2022-11-14T07:24:55.095Z,5.43
2022-11-14T07:27:43.392Z,6.47
2022-11-14T07:30:31.124Z,5.50
2022-11-14T07:33:18.804Z,7.10
2022-11-14T07:36:07.289Z,6.13
2022-11-14T07:38:55.393Z,6.57
2022-11-14T07:41:44.212Z,6.93
2022-11-14T07:44:32.486Z,6.13
2022-11-14T07:47:20.048Z,6.60
2022-11-14T07:50:08.492Z,6.40
2022-11-14T07:52:57.663Z,5.40
2022-11-14T07:55:45.386Z,6.60
2022-11-14T07:58:34.895Z,5.17
2022-11-14T08:01:22.968Z,8.40
2022-11-14T08:04:10.454Z,7.20
2022-11-14T08:06:58.203Z,10.50
2022-11-14T08:09:45.627Z,6.80
2022-11-14T08:12:33.325Z,5.00
2022-11-14T08:15:22.570Z,6.00
2022-11-14T08:18:10.258Z,7.67
2022-11-14T08:20:58.039Z,6.63
2022-11-14T08:23:46.296Z,6.80
2022-11-14T08:26:34.541Z,8.23
2022-11-14T08:29:22.400Z,8.40
2022-11-14T08:32:12.048Z,8.63
2022-11-14T08:34:59.496Z,7.40
2022-11-14T08:37:47.218Z,12.53
2022-11-14T08:40:35.033Z,14.40
2022-11-14T08:43:22.740Z,19.57
2022-11-14T08:46:10.546Z,15.40
2022-11-14T08:48:59.773Z,15.90
2022-11-14T08:51:47.713Z,15.87
2022-11-14T08:54:35.575Z,17.10
2022-11-14T08:57:23.377Z,14.23
2022-11-14T09:00:11.705Z,15.47
2022-11-14T09:02:59.994Z,14.13
2022-11-14T09:05:54.536Z,13.00
2022-11-14T09:08:42.283Z,12.37
2022-11-14T09:11:29.805Z,16.10
2022-11-14T09:14:17.827Z,14.97
2022-11-14T09:17:06.306Z,15.37
2022-11-14T09:19:54.236Z,16.27
2022-11-14T09:22:43.791Z,9.07
2022-11-14T09:25:31.687Z,7.20
2022-11-14T09:28:19.688Z,14.90
2022-11-14T09:31:08.540Z,17.37
2022-11-14T09:33:56.439Z,17.50
2022-11-14T09:36:43.937Z,16.57
2022-11-14T09:39:33.231Z,16.17
2022-11-14T09:42:25.303Z,12.57
2022-11-14T09:45:14.358Z,8.60
2022-11-14T09:48:06.957Z,7.90
2022-11-14T09:51:00.653Z,11.23
2022-11-14T09:53:50.125Z,6.53
2022-11-14T09:56:39.097Z,8.30
2022-11-14T09:59:27.223Z,8.63
2022-11-14T10:02:23.323Z,6.53
2022-11-14T10:05:18.738Z,8.07
2022-11-14T10:08:10.817Z,8.80
2022-11-14T10:11:01.116Z,6.40
2022-11-14T10:14:03.947Z,5.93
2022-11-14T10:16:56.645Z,8.70
2022-11-14T10:19:47.705Z,6.90
2022-11-14T10:22:45.006Z,6.97
2022-11-14T10:25:40.933Z,7.00
2022-11-14T10:28:36.361Z,7.20
2022-11-14T10:31:30.736Z,7.57
2022-11-14T10:34:28.083Z,7.47
2022-11-14T10:37:19.819Z,7.43
2022-11-14T10:40:17.895Z,6.00
2022-11-14T10:43:08.439Z,6.20
2022-11-14T10:45:58.292Z,7.30
2022-11-14T10:48:48.535Z,6.07
2022-11-14T10:51:40.004Z,6.63
2022-11-14T10:54:29.999Z,6.53
2022-11-14T10:57:19.142Z,7.50
2022-11-14T11:00:12.120Z,7.90
2022-11-14T11:03:00.456Z,7.40
2022-11-14T11:05:50.350Z,8.40
2022-11-14T11:09:02.731Z,8.50
2022-11-14T11:11:56.323Z,9.07
2022-11-14T11:14:44.620Z,8.37
2022-11-14T11:17:37.353Z,9.00
2022-11-14T11:20:35.308Z,9.50
2022-11-14T11:23:25.264Z,9.30
2022-11-14T11:26:21.005Z,8.60
2022-11-14T11:29:10.439Z,9.20
2022-11-14T11:31:59.182Z,7.67
2022-11-14T11:34:47.214Z,6.53
2022-11-14T11:37:36.114Z,6.47
2022-11-14T11:40:25.840Z,6.77
2022-11-14T11:46:29.052Z,5.50
2022-11-14T11:49:20.272Z,6.87
2022-11-14T11:52:13.291Z,6.40
2022-11-14T11:55:03.035Z,6.93
2022-11-14T11:57:53.585Z,6.57
2022-11-14T12:00:42.721Z,7.13
2022-11-14T12:03:31.013Z,6.73
2022-11-14T12:06:24.942Z,6.53
2022-11-14T12:09:17.210Z,7.57
2022-11-14T12:12:08.294Z,7.13
2022-11-14T12:15:02.411Z,7.90
2022-11-14T12:18:04.799Z,6.70
2022-11-14T12:21:04.862Z,8.43
2022-11-14T12:24:05.943Z,7.20
2022-11-14T12:27:06.570Z,8.37
2022-11-14T12:30:11.185Z,7.10
2022-11-14T12:33:02.485Z,7.10
2022-11-14T12:35:52.731Z,6.03
2022-11-14T12:38:44.209Z,6.50
2022-11-14T12:41:33.111Z,6.53
2022-11-14T12:44:33.146Z,6.27
2022-11-14T12:47:22.032Z,6.60
2022-11-14T12:50:36.549Z,7.33
2022-11-14T12:53:44.027Z,7.27
2022-11-14T12:56:53.856Z,6.30
2022-11-14T12:59:51.405Z,6.63
2022-11-14T13:03:06.070Z,7.03
2022-11-14T13:05:59.361Z,6.57
2022-11-14T13:09:06.057Z,7.60
2022-11-14T13:12:11.653Z,6.50
2022-11-14T13:15:17.565Z,6.30
2022-11-14T13:18:24.154Z,7.20
2022-11-14T13:21:45.815Z,5.80
2022-11-14T13:24:48.439Z,5.83
2022-11-14T13:28:06.027Z,8.20
2022-11-14T13:31:02.912Z,8.30
2022-11-14T13:33:51.570Z,8.37
2022-11-14T13:36:45.155Z,6.53
2022-11-14T13:39:38.525Z,5.80
2022-11-14T13:42:35.941Z,6.80
2022-11-14T13:45:31.980Z,6.40
2022-11-14T13:48:35.174Z,6.00
2022-11-14T13:54:33.486Z,6.70
2022-11-14T13:57:28.225Z,6.90
2022-11-14T14:00:20.366Z,6.40
2022-11-14T14:03:20.038Z,5.70
2022-11-14T14:06:14.932Z,6.23
2022-11-14T14:09:10.384Z,6.33
2022-11-14T14:12:07.004Z,6.40
2022-11-14T14:15:00.699Z,6.20
2022-11-14T14:17:52.762Z,6.20
2022-11-14T14:20:46.587Z,7.60
2022-11-14T14:23:39.358Z,7.33
2022-11-14T14:26:34.065Z,7.30
2022-11-14T14:29:26.529Z,5.77
2022-11-14T14:32:15.331Z,6.30
2022-11-14T14:35:04.524Z,6.63
2022-11-14T14:37:53.045Z,6.90
2022-11-14T14:40:42.502Z,8.77
2022-11-14T14:43:32.803Z,6.40
2022-11-14T14:46:30.321Z,7.73
2022-11-14T14:49:21.106Z,7.03
2022-11-14T14:52:21.530Z,7.03
2022-11-14T14:55:19.847Z,7.33
2022-11-14T14:58:22.203Z,7.20
2022-11-14T15:01:12.935Z,7.00
2022-11-14T15:04:04.564Z,7.17
2022-11-14T15:06:52.883Z,7.63
2022-11-14T15:09:41.064Z,7.40
2022-11-14T15:12:29.550Z,7.57
2022-11-14T15:15:18.643Z,8.10
2022-11-14T15:18:08.113Z,7.77
2022-11-14T15:21:15.743Z,8.00
2022-11-14T15:24:04.868Z,7.70
2022-11-14T15:26:53.217Z,6.57
2022-11-14T15:29:48.083Z,6.90
2022-11-14T15:32:35.641Z,10.27
2022-11-14T15:35:28.288Z,7.20
2022-11-14T15:41:32.495Z,7.10
2022-11-14T15:44:33.407Z,6.83
2022-11-14T15:47:22.325Z,7.47
2022-11-14T15:50:24.654Z,5.97
2022-11-14T15:53:19.211Z,7.20
2022-11-14T15:56:08.373Z,6.53
2022-11-14T15:58:56.169Z,7.37
2022-11-14T16:01:44.363Z,7.53
2022-11-14T16:04:34.434Z,7.57
2022-11-14T16:07:22.062Z,7.20
2022-11-14T16:10:15.722Z,7.00
2022-11-14T16:13:05.172Z,6.00
2022-11-14T16:15:53.073Z,7.40
2022-11-14T16:18:40.529Z,7.40
2022-11-14T16:21:28.652Z,6.40
2022-11-14T16:24:17.775Z,7.07
2022-11-14T16:27:06.006Z,9.40
2022-11-14T16:29:55.550Z,6.67
2022-11-14T16:32:46.452Z,6.73
2022-11-14T16:35:34.208Z,7.90
2022-11-14T16:38:22.346Z,6.97
2022-11-14T16:41:10.883Z,7.27
2022-11-14T16:43:59.379Z,7.40
2022-11-14T16:46:48.719Z,5.93
2022-11-14T16:49:36.419Z,7.33
2022-11-14T16:52:24.523Z,6.67
2022-11-14T16:55:12.938Z,6.93
2022-11-14T16:58:00.677Z,6.57
2022-11-14T17:00:48.889Z,8.20
2022-11-14T17:03:38.205Z,6.77
2022-11-14T17:06:26.142Z,8.57
2022-11-14T17:09:14.750Z,7.07
2022-11-14T17:12:03.037Z,9.53
2022-11-14T17:14:50.702Z,8.47
2022-11-14T17:17:38.550Z,7.70
2022-11-14T17:20:27.654Z,8.83
2022-11-14T17:23:15.413Z,7.80
2022-11-14T17:26:04.109Z,8.07
2022-11-14T17:28:52.093Z,8.17
2022-11-14T17:31:44.427Z,11.90
2022-11-14T17:34:34.563Z,8.07
2022-11-14T17:37:24.004Z,10.30
2022-11-14T17:40:15.528Z,8.80
2022-11-14T17:43:03.248Z,9.53
2022-11-14T17:45:56.377Z,10.80
2022-11-14T17:48:43.934Z,7.27
2022-11-14T17:51:31.798Z,8.27
2022-11-14T17:54:21.041Z,7.43
2022-11-14T17:57:08.881Z,4.97
2022-11-14T17:59:57.420Z,7.00
2022-11-14T18:02:45.273Z,6.83
2022-11-14T18:05:32.885Z,7.90
2022-11-14T18:08:20.792Z,9.83
2022-11-14T18:11:11.293Z,6.70
2022-11-14T18:13:59.343Z,5.80
2022-11-14T18:17:11.361Z,5.77
2022-11-14T18:19:56.350Z,5.97
2022-11-14T18:22:44.359Z,4.97
2022-11-14T18:25:32.450Z,12.40
2022-11-14T18:28:22.915Z,6.83
2022-11-14T18:31:11.726Z,11.73
2022-11-14T18:33:59.690Z,10.20
2022-11-14T18:36:48.032Z,6.93
2022-11-14T18:39:35.700Z,8.50
2022-11-14T18:42:23.297Z,12.77
2022-11-14T18:45:12.781Z,12.13
2022-11-14T18:48:00.665Z,10.80
2022-11-14T18:50:48.777Z,11.60
2022-11-14T18:53:37.184Z,7.00
2022-11-14T18:56:25.630Z,8.93
2022-11-14T18:59:13.299Z,10.77
2022-11-14T19:02:02.455Z,6.53
2022-11-14T19:04:50.095Z,9.13
2022-11-14T19:07:37.918Z,6.90
2022-11-14T19:10:25.659Z,8.33
2022-11-14T19:13:13.610Z,6.70
2022-11-14T19:16:04.788Z,7.20
2022-11-14T19:18:53.739Z,6.30
2022-11-14T19:21:41.437Z,7.33
2022-11-14T19:24:29.306Z,8.80
2022-11-14T19:27:17.404Z,6.70
2022-11-14T19:30:05.622Z,7.40
2022-11-14T19:32:53.594Z,6.97
2022-11-14T19:35:42.688Z,9.07
2022-11-14T19:38:30.537Z,9.07
2022-11-14T19:41:20.413Z,6.50
2022-11-14T19:44:08.252Z,9.33
2022-11-14T19:46:55.946Z,7.70
2022-11-14T19:49:44.293Z,8.17
2022-11-14T19:52:33.427Z,7.10
2022-11-14T19:55:21.485Z,6.37
2022-11-14T19:58:09.392Z,6.47
2022-11-14T20:01:02.667Z,5.83
2022-11-14T20:03:52.979Z,6.17
2022-11-14T20:06:41.794Z,5.90
2022-11-14T20:09:31.123Z,8.40
2022-11-14T20:12:19.357Z,10.00
2022-11-14T20:15:07.495Z,9.30
2022-11-14T20:17:55.353Z,9.57
2022-11-14T20:20:42.921Z,10.10
2022-11-14T20:23:30.904Z,9.67
2022-11-14T20:26:20.488Z,11.10
2022-11-14T20:29:08.730Z,10.60
2022-11-14T20:31:56.756Z,11.40
2022-11-14T20:34:44.596Z,10.80
2022-11-14T20:37:32.131Z,10.23
2022-11-14T20:40:20.362Z,10.53
2022-11-14T20:43:09.424Z,11.30
2022-11-14T20:45:58.204Z,10.70
2022-11-14T20:48:46.758Z,9.73
2022-11-14T20:51:36.707Z,9.93
2022-11-14T20:54:25.569Z,12.97
2022-11-14T20:57:13.186Z,10.10
2022-11-14T21:00:02.066Z,11.07
2022-11-14T21:02:50.216Z,9.20
2022-11-14T21:05:40.204Z,9.70
2022-11-14T21:08:28.256Z,11.00
2022-11-14T21:11:18.415Z,10.07
2022-11-14T21:14:06.552Z,8.53
2022-11-14T21:16:56.152Z,10.90
2022-11-14T21:19:44.264Z,11.50
2022-11-14T21:22:31.753Z,10.37
2022-11-14T21:25:19.346Z,10.77
2022-11-14T21:28:07.104Z,8.17
2022-11-14T21:30:55.098Z,10.40
2022-11-14T21:33:44.042Z,6.77
2022-11-14T21:36:47.280Z,7.43
2022-11-14T21:39:35.658Z,8.00
2022-11-14T21:42:23.357Z,7.00
2022-11-14T21:45:11.672Z,6.70
2022-11-14T21:47:59.687Z,5.03
2022-11-14T21:50:48.659Z,6.20
2022-11-14T21:53:37.105Z,7.33
2022-11-14T21:56:25.722Z,5.57
2022-11-14T21:59:15.782Z,6.30
2022-11-14T22:02:21.621Z,6.47
2022-11-14T22:05:10.187Z,7.60
2022-11-14T22:07:59.902Z,7.30
2022-11-14T22:10:47.780Z,6.50
2022-11-14T22:13:35.735Z,6.80
2022-11-14T22:16:23.343Z,8.53
2022-11-14T22:19:10.878Z,7.50
2022-11-14T22:21:58.911Z,8.43
2022-11-14T22:24:47.850Z,8.17
2022-11-14T22:27:35.503Z,7.03
2022-11-14T22:30:24.208Z,18.40
2022-11-14T22:33:12.379Z,7.27
2022-11-14T22:36:03.971Z,5.90
2022-11-14T22:38:52.223Z,5.93
2022-11-14T22:41:41.120Z,6.40
2022-11-14T22:44:29.060Z,6.30
2022-11-14T22:47:17.084Z,5.53
2022-11-14T22:50:04.757Z,5.70
2022-11-14T22:52:52.353Z,6.77
2022-11-14T22:55:48.291Z,6.27
2022-11-14T22:58:38.260Z,6.57
2022-11-14T23:01:26.654Z,5.33
2022-11-14T23:04:14.630Z,6.80
2022-11-14T23:07:03.664Z,5.80
2022-11-14T23:09:51.322Z,5.30
2022-11-14T23:12:39.114Z,5.03
2022-11-14T23:15:28.267Z,5.80
2022-11-14T23:18:16.337Z,4.13
2022-11-14T23:21:06.749Z,5.47
2022-11-14T23:23:55.124Z,4.50
2022-11-14T23:26:42.941Z,4.20
2022-11-14T23:29:30.954Z,5.10
2022-11-14T23:32:20.141Z,5.30
2022-11-14T23:35:08.644Z,5.97
2022-11-14T23:37:55.959Z,4.70
2022-11-14T23:40:44.146Z,4.67
2022-11-14T23:43:32.119Z,4.90
2022-11-14T23:46:20.036Z,4.30
2022-11-14T23:49:09.216Z,4.43
2022-11-14T23:51:56.784Z,4.80
2022-11-14T23:54:44.617Z,5.30
2022-11-14T23:57:33.428Z,4.10
